Time;durP1;ratioP1;P1;durP2;ratioP2;P2;SDS_P1;SDS_P2;PMS_P1;PMS_P2;Temp;Humidity;BMP_temperature;BMP_pressure;BME280_temperature;BME280_humidity;BME280_pressure;Samples;Min_cycle;Max_cycle;Signal;HPM_P1;HPM_P2
2022/04/23 00:01:10;;;;;;;31.88;25.50;;;;;;;11.18;100.00;99142.19;5068719;28;20463;-63
2022/04/23 00:03:36;;;;;;;28.85;24.52;;;;;;;11.23;100.00;99154.09;5068487;28;20044;-64
2022/04/23 00:06:02;;;;;;;36.03;26.13;;;;;;;11.18;100.00;99143.03;5072885;28;20486;-63
2022/04/23 00:08:27;;;;;;;32.55;25.08;;;;;;;11.19;100.00;99147.41;5069167;28;20226;-63
2022/04/23 00:10:53;;;;;;;33.95;26.73;;;;;;;11.16;100.00;99154.97;5076890;28;20016;-63
2022/04/23 00:13:19;;;;;;;33.78;27.27;;;;;;;11.14;100.00;99157.81;5076761;28;20557;-63
2022/04/23 00:15:44;;;;;;;31.42;25.85;;;;;;;11.10;100.00;99158.31;5070587;28;20490;-63
2022/04/23 00:18:10;;;;;;;29.95;26.08;;;;;;;11.15;100.00;99155.94;5071622;28;20117;-63
2022/04/23 00:20:37;;;;;;;33.92;26.60;;;;;;;11.14;100.00;99163.19;5072989;28;20668;-63
2022/04/23 00:23:05;;;;;;;35.85;27.45;;;;;;;11.17;100.00;99156.63;5072623;28;20532;-63
2022/04/23 00:25:31;;;;;;;33.85;27.67;;;;;;;11.14;100.00;99159.66;5087889;28;20461;-62
2022/04/23 00:27:57;;;;;;;32.67;26.60;;;;;;;11.09;100.00;99156.59;5088263;28;20505;-63
2022/04/23 00:30:22;;;;;;;32.83;26.77;;;;;;;11.12;100.00;99167.88;5081501;28;20043;-63
2022/04/23 00:32:48;;;;;;;34.70;27.42;;;;;;;11.13;100.00;99171.41;5075444;28;20028;-63
2022/04/23 00:35:17;;;;;;;32.63;27.77;;;;;;;11.13;100.00;99169.53;5067525;28;20033;-63
2022/04/23 00:37:47;;;;;;;33.22;26.88;;;;;;;11.06;100.00;99154.28;5067328;28;20056;-63
2022/04/23 00:40:18;;;;;;;34.88;27.08;;;;;;;11.13;100.00;99179.44;5067669;28;20059;-63
2022/04/23 00:42:52;;;;;;;33.25;26.33;;;;;;;11.13;100.00;99174.91;5065783;28;20052;-63
2022/04/23 00:45:21;;;;;;;34.58;27.73;;;;;;;11.13;100.00;99174.91;5067504;28;20617;-63
2022/04/23 00:47:46;;;;;;;31.80;26.02;;;;;;;11.11;100.00;99170.72;5068545;28;20040;-62
2022/04/23 00:50:12;;;;;;;31.52;26.95;;;;;;;11.10;100.00;99164.50;5070020;28;20045;-63
2022/04/23 00:52:38;;;;;;;32.92;27.35;;;;;;;11.06;100.00;99163.16;5086728;28;20038;-62
2022/04/23 00:55:05;;;;;;;32.30;27.33;;;;;;;11.05;100.00;99161.47;5079700;28;20474;-62
2022/04/23 00:57:31;;;;;;;32.20;26.58;;;;;;;11.09;100.00;99170.88;5080362;28;20435;-62
2022/04/23 00:59:57;;;;;;;31.23;25.70;;;;;;;11.10;100.00;99172.53;5081360;28;20394;-62
2022/04/23 01:02:23;;;;;;;31.25;26.40;;;;;;;11.10;100.00;99169.84;5070114;28;20028;-62
2022/04/23 01:04:48;;;;;;;32.92;25.65;;;;;;;11.11;100.00;99174.25;5076110;28;20032;-62
2022/04/23 01:07:14;;;;;;;28.17;24.67;;;;;;;11.08;100.00;99179.94;5078356;28;20040;-62
2022/04/23 01:09:44;;;;;;;34.50;26.10;;;;;;;11.07;100.00;99194.34;5078094;28;20484;-62
2022/04/23 01:12:11;;;;;;;33.83;25.45;;;;;;;11.03;100.00;99182.25;5076240;28;20595;-62
2022/04/23 01:14:59;;;;;;;32.58;26.23;;;;;;;11.01;100.00;99186.97;5068741;28;20032;-61
2022/04/23 01:17:25;;;;;;;32.03;25.75;;;;;;;11.03;100.00;99192.19;5069603;28;20044;-62
2022/04/23 01:19:51;;;;;;;33.85;25.95;;;;;;;10.99;100.00;99194.34;5064335;28;20029;-63
2022/04/23 01:22:17;;;;;;;33.15;26.75;;;;;;;10.98;100.00;99189.13;5070701;28;20056;-63
2022/04/23 01:24:43;;;;;;;31.90;25.25;;;;;;;10.99;100.00;99193.47;5072328;28;20454;-63
2022/04/23 01:27:10;;;;;;;33.65;24.85;;;;;;;10.89;100.00;99177.56;5063501;28;20085;-63
2022/04/23 01:29:38;;;;;;;30.38;24.30;;;;;;;10.96;100.00;99183.09;5071067;28;20027;-63
2022/04/23 01:32:05;;;;;;;31.38;24.88;;;;;;;10.98;100.00;99176.56;5064460;28;20778;-64
2022/04/23 01:34:30;;;;;;;29.80;25.48;;;;;;;10.97;100.00;99177.56;5067304;28;20021;-63
2022/04/23 01:36:56;;;;;;;30.50;24.13;;;;;;;10.89;100.00;99163.28;5068923;28;20028;-63
2022/04/23 01:39:21;;;;;;;30.60;25.27;;;;;;;10.95;100.00;99179.59;5066853;28;20481;-63
2022/04/23 01:41:47;;;;;;;30.33;25.45;;;;;;;10.96;100.00;99178.56;5065920;28;20463;-63
2022/04/23 01:44:13;;;;;;;30.60;24.38;;;;;;;10.94;100.00;99177.88;5073630;28;20602;-63
2022/04/23 01:46:39;;;;;;;29.58;24.60;;;;;;;10.96;100.00;99180.41;5066688;28;20051;-63
2022/04/23 01:49:04;;;;;;;28.55;24.45;;;;;;;10.88;100.00;99175.88;5072898;28;20053;-62
2022/04/23 01:51:30;;;;;;;32.53;26.77;;;;;;;10.92;100.00;99187.97;5077175;28;20110;-62
2022/04/23 01:53:55;;;;;;;32.17;25.23;;;;;;;10.84;100.00;99174.50;5062130;28;20024;-62
2022/04/23 01:56:21;;;;;;;29.55;24.73;;;;;;;10.87;100.00;99192.13;5067347;28;20318;-62
2022/04/23 01:58:46;;;;;;;32.40;26.30;;;;;;;10.90;100.00;99178.41;5067020;28;20047;-62
2022/04/23 02:01:12;;;;;;;33.47;26.10;;;;;;;10.89;100.00;99190.97;5070526;28;20024;-62
2022/04/23 02:03:37;;;;;;;29.85;24.83;;;;;;;10.87;100.00;99186.78;5068048;28;20107;-61
2022/04/23 02:06:03;;;;;;;31.25;25.83;;;;;;;10.84;100.00;99187.09;5069993;28;20075;-62
2022/04/23 02:08:28;;;;;;;33.10;25.25;;;;;;;10.84;100.00;99192.47;5056582;28;20087;-63
2022/04/23 02:10:54;;;;;;;29.77;25.70;;;;;;;10.84;100.00;99201.31;5070408;28;20024;-62
2022/04/23 02:13:20;;;;;;;32.15;25.50;;;;;;;10.84;100.00;99201.31;5064921;28;20032;-62
2022/04/23 02:15:45;;;;;;;30.20;25.05;;;;;;;10.80;100.00;99186.56;5068688;28;20098;-62
2022/04/23 02:18:11;;;;;;;31.90;25.75;;;;;;;10.84;100.00;99198.66;5087364;28;20180;-62
2022/04/23 02:20:37;;;;;;;31.27;25.73;;;;;;;10.84;100.00;99197.81;5075314;28;20032;-62
2022/04/23 02:23:06;;;;;;;32.38;25.60;;;;;;;10.84;100.00;99204.00;5070849;28;20029;-62
2022/04/23 02:25:36;;;;;;;31.05;25.77;;;;;;;10.83;100.00;99201.50;5070529;28;20047;-62
2022/04/23 02:28:03;;;;;;;32.63;26.45;;;;;;;10.82;100.00;99205.19;5070407;28;20466;-62
2022/04/23 02:30:29;;;;;;;32.33;27.85;;;;;;;10.84;100.00;99216.59;5070475;28;20035;-62
2022/04/23 02:32:54;;;;;;;32.25;26.83;;;;;;;10.84;100.00;99216.59;5085544;28;20023;-62
2022/04/23 02:35:20;;;;;;;32.65;26.85;;;;;;;10.79;100.00;99219.78;5073507;28;20478;-62
2022/04/23 02:37:48;;;;;;;32.53;26.58;;;;;;;10.78;100.00;99214.56;5070220;28;20036;-62
2022/04/23 02:40:14;;;;;;;34.22;26.73;;;;;;;10.77;100.00;99212.91;5070286;28;20025;-62
2022/04/23 02:42:40;;;;;;;32.15;26.13;;;;;;;10.77;100.00;99219.06;5070141;28;20031;-62
2022/04/23 02:45:07;;;;;;;34.90;28.10;;;;;;;10.78;100.00;99220.78;5070513;28;20024;-63
2022/04/23 02:47:47;;;;;;;33.03;26.08;;;;;;;10.81;100.00;99225.78;5076319;28;20039;-62
2022/04/23 02:50:14;;;;;;;33.95;27.02;;;;;;;10.78;100.00;99227.97;5083626;28;20052;-62
2022/04/23 02:52:45;;;;;;;33.63;27.20;;;;;;;10.75;100.00;99221.09;5070000;28;20039;-62
2022/04/23 02:55:12;;;;;;;34.17;28.15;;;;;;;10.66;100.00;99207.81;5069982;28;20036;-64
2022/04/23 02:57:41;;;;;;;33.90;26.15;;;;;;;10.78;100.00;99222.63;5083156;28;20469;-64
2022/04/23 03:00:07;;;;;;;33.15;28.13;;;;;;;10.74;100.00;99221.25;5090256;28;20051;-64
2022/04/23 03:02:36;;;;;;;35.75;27.83;;;;;;;10.77;100.00;99226.31;5089648;28;20028;-63
2022/04/23 03:05:04;;;;;;;35.35;26.63;;;;;;;10.81;100.00;99230.34;5089953;28;20453;-63
2022/04/23 03:07:31;;;;;;;32.42;26.25;;;;;;;10.79;100.00;99233.19;5090108;28;20119;-63
2022/04/23 03:09:56;;;;;;;33.75;26.98;;;;;;;10.81;100.00;99227.66;5090042;28;20100;-63
2022/04/23 03:12:22;;;;;;;36.00;27.63;;;;;;;10.80;100.00;99226.81;5090085;28;20449;-63
2022/04/23 03:14:48;;;;;;;35.10;27.85;;;;;;;10.79;100.00;99229.66;5089247;28;20054;-64
2022/04/23 03:17:13;;;;;;;32.95;27.23;;;;;;;10.76;100.00;99240.69;5089924;28;20040;-64
2022/04/23 03:19:39;;;;;;;32.88;26.25;;;;;;;10.70;100.00;99242.19;5089568;28;20085;-64
2022/04/23 03:22:04;;;;;;;34.70;26.13;;;;;;;10.68;100.00;99238.81;5090003;28;20052;-64
2022/04/23 03:24:30;;;;;;;32.88;27.42;;;;;;;10.66;100.00;99238.16;5089641;28;20122;-63
2022/04/23 03:26:55;;;;;;;32.45;26.38;;;;;;;10.67;100.00;99250.56;5079663;28;20020;-64
2022/04/23 03:29:21;;;;;;;31.52;27.05;;;;;;;10.66;100.00;99243.53;5068032;28;20478;-64
2022/04/23 03:31:50;;;;;;;35.80;26.63;;;;;;;10.68;100.00;99235.31;5069211;28;20035;-64
2022/04/23 03:34:16;;;;;;;32.13;26.75;;;;;;;10.69;100.00;99247.72;5085507;28;20476;-64
2022/04/23 03:36:41;;;;;;;36.58;26.77;;;;;;;10.63;100.00;99222.38;5088269;28;20040;-64
2022/04/23 03:39:07;;;;;;;33.97;26.90;;;;;;;10.69;100.00;99234.31;5087961;28;20043;-64
2022/04/23 03:41:34;;;;;;;34.97;27.00;;;;;;;10.71;100.00;99241.19;5089765;28;20033;-63
2022/04/23 03:44:00;;;;;;;34.33;26.23;;;;;;;10.68;100.00;99227.28;5072273;28;20103;-64
2022/04/23 03:46:26;;;;;;;32.53;27.67;;;;;;;10.64;100.00;99225.91;5068531;28;20124;-64
2022/04/23 03:48:51;;;;;;;33.03;27.17;;;;;;;10.67;100.00;99242.50;5073800;28;20067;-64
2022/04/23 03:51:17;;;;;;;31.17;26.55;;;;;;;10.71;100.00;99240.34;5088969;28;20067;-64
2022/04/23 03:53:42;;;;;;;32.30;26.20;;;;;;;10.72;100.00;99245.56;5088792;28;20069;-64
2022/04/23 03:56:09;;;;;;;31.58;25.58;;;;;;;10.72;100.00;99245.56;5083637;28;20028;-64
2022/04/23 03:58:35;;;;;;;33.28;25.65;;;;;;;10.74;100.00;99246.22;5071676;28;20038;-64
2022/04/23 04:01:01;;;;;;;32.90;25.60;;;;;;;10.56;100.00;99224.03;5069291;28;20027;-63
2022/04/23 04:15:11;;;;;;;31.83;25.80;;;;;;;10.69;100.00;99236.97;5142571;27;20355;-70
2022/04/23 04:17:37;;;;;;;30.40;24.17;;;;;;;10.62;100.00;99241.31;5116549;28;20047;-70
2022/04/23 04:20:07;;;;;;;36.15;24.67;;;;;;;10.65;100.00;99252.56;5121326;28;20098;-71
2022/04/23 04:22:35;;;;;;;32.88;24.83;;;;;;;10.65;100.00;99254.41;5120033;27;20042;-72
2022/04/23 04:25:02;;;;;;;32.20;24.88;;;;;;;10.61;100.00;99251.19;5118944;27;20027;-70
2022/04/23 04:27:27;;;;;;;33.55;25.52;;;;;;;10.54;100.00;99247.47;5141408;27;20095;-71
2022/04/23 04:29:53;;;;;;;31.17;25.88;;;;;;;10.61;100.00;99259.22;5121730;27;20053;-70
2022/04/23 04:32:20;;;;;;;31.33;24.55;;;;;;;10.62;100.00;99266.31;5129092;27;20075;-71
2022/04/23 04:34:46;;;;;;;29.50;24.88;;;;;;;10.63;100.00;99264.44;5128072;27;20142;-71
2022/04/23 04:37:12;;;;;;;32.22;25.33;;;;;;;10.65;100.00;99268.66;5128905;27;20180;-72
2022/04/23 04:39:41;;;;;;;33.63;26.15;;;;;;;10.63;100.00;99264.44;5128083;27;20031;-71
2022/04/23 04:42:07;;;;;;;33.30;25.30;;;;;;;10.69;100.00;99277.22;5129115;27;20026;-72
2022/04/23 04:44:33;;;;;;;35.33;27.70;;;;;;;10.71;100.00;99280.59;5127645;27;20087;-70
2022/04/23 04:46:59;;;;;;;37.03;27.65;;;;;;;10.72;100.00;99280.41;5128640;27;20049;-70
2022/04/23 04:49:25;;;;;;;35.92;27.65;;;;;;;10.70;100.00;99284.25;5127982;27;20035;-70
2022/04/23 04:51:52;;;;;;;40.88;27.75;;;;;;;10.68;100.00;99291.63;5146874;27;20386;-72
2022/04/23 04:54:18;;;;;;;38.13;26.70;;;;;;;10.69;100.00;99299.50;5128157;27;20654;-72
2022/04/23 04:56:45;;;;;;;39.03;27.23;;;;;;;10.62;100.00;99292.25;5113572;28;20106;-71
2022/04/23 04:59:10;;;;;;;42.80;29.10;;;;;;;10.58;100.00;99296.28;5126774;28;20027;-68
2022/04/23 05:01:35;;;;;;;39.92;28.10;;;;;;;10.47;100.00;99283.97;5126400;28;20589;-72
2022/04/23 05:04:02;;;;;;;38.65;28.08;;;;;;;10.47;100.00;99292.00;5127275;28;20031;-71
2022/04/23 05:06:28;;;;;;;36.58;27.92;;;;;;;10.51;100.00;99298.72;5109797;28;20502;-71
2022/04/23 05:08:53;;;;;;;42.65;28.90;;;;;;;10.43;100.00;99276.41;5109646;28;20116;-66
2022/04/23 05:11:19;;;;;;;38.35;28.88;;;;;;;10.56;100.00;99287.53;5127745;28;20031;-65
2022/04/23 05:13:44;;;;;;;44.03;28.33;;;;;;;10.57;100.00;99294.56;5127647;28;20047;-65
2022/04/23 05:16:10;;;;;;;37.63;27.90;;;;;;;10.58;100.00;99301.63;5113591;28;20037;-65
2022/04/23 05:18:35;;;;;;;42.42;29.17;;;;;;;10.54;100.00;99314.50;5114096;28;20028;-66
2022/04/23 05:21:02;;;;;;;42.38;29.83;;;;;;;10.55;100.00;99316.16;5113868;28;20028;-66
2022/04/23 05:23:28;;;;;;;45.10;30.10;;;;;;;10.61;100.00;99322.75;5114028;28;20020;-66
2022/04/23 05:25:55;;;;;;;42.40;29.00;;;;;;;10.61;100.00;99328.94;5113877;28;20031;-66
2022/04/23 05:28:20;;;;;;;44.10;29.15;;;;;;;10.56;100.00;99325.06;5113705;28;20019;-65
2022/04/23 05:30:46;;;;;;;47.70;30.50;;;;;;;10.56;100.00;99331.28;5113909;28;20387;-65
2022/04/23 05:33:11;;;;;;;46.30;29.50;;;;;;;10.55;100.00;99334.13;5095277;28;20043;-64
2022/04/23 05:35:37;;;;;;;45.92;29.92;;;;;;;10.51;100.00;99343.47;5095590;28;20499;-65
2022/04/23 05:38:03;;;;;;;42.58;29.42;;;;;;;10.50;100.00;99349.81;5095441;28;20612;-66
2022/04/23 05:40:28;;;;;;;43.72;28.80;;;;;;;10.50;100.00;99350.69;5113659;28;20027;-66
2022/04/23 05:42:57;;;;;;;43.65;29.70;;;;;;;10.42;100.00;99347.09;5113512;28;20023;-65
2022/04/23 05:45:24;;;;;;;41.10;30.90;;;;;;;10.44;100.00;99358.50;5113552;28;20103;-65
2022/04/23 05:47:49;;;;;;;38.28;29.13;;;;;;;10.42;100.00;99377.41;5113568;28;20127;-65
2022/04/23 05:50:15;;;;;;;48.70;29.83;;;;;;;10.42;100.00;99366.69;5113365;28;20527;-65
2022/04/23 05:52:40;;;;;;;43.80;30.40;;;;;;;10.44;100.00;99369.22;5095006;28;20028;-66
2022/04/23 05:55:07;;;;;;;40.47;29.63;;;;;;;10.35;100.00;99351.41;5113634;28;20028;-65
2022/04/23 05:57:32;;;;;;;35.80;28.67;;;;;;;10.38;100.00;99365.31;5113252;28;20020;-66
2022/04/23 05:59:58;;;;;;;35.30;28.00;;;;;;;10.39;100.00;99366.19;5113163;28;20035;-65
2022/04/23 06:02:24;;;;;;;44.22;30.17;;;;;;;10.40;100.00;99367.84;5113184;28;20056;-65
2022/04/23 06:04:49;;;;;;;39.38;27.60;;;;;;;10.41;100.00;99372.19;5113150;28;20023;-65
2022/04/23 06:07:16;;;;;;;36.05;27.70;;;;;;;10.46;100.00;99372.59;5113235;28;20112;-65
2022/04/23 06:09:42;;;;;;;34.95;26.60;;;;;;;10.46;100.00;99368.06;5113099;28;20043;-64
2022/04/23 06:12:08;;;;;;;32.25;25.90;;;;;;;10.51;100.00;99376.47;5112936;28;20023;-65
2022/04/23 06:14:33;;;;;;;33.58;25.88;;;;;;;10.55;100.00;99377.00;5112698;28;20051;-65
2022/04/23 06:16:59;;;;;;;34.55;26.60;;;;;;;10.60;100.00;99388.94;5112853;28;20042;-65
2022/04/23 06:19:24;;;;;;;33.28;25.08;;;;;;;10.56;100.00;99389.41;5112884;28;20106;-65
2022/04/23 06:21:50;;;;;;;31.65;25.30;;;;;;;10.54;100.00;99386.03;5094617;28;20070;-65
2022/04/23 06:24:16;;;;;;;38.10;27.67;;;;;;;10.53;100.00;99390.56;5112717;28;20098;-64
2022/04/23 06:26:41;;;;;;;33.92;25.65;;;;;;;10.54;100.00;99392.25;5111799;28;20028;-64
2022/04/23 06:29:07;;;;;;;34.33;25.95;;;;;;;10.54;100.00;99397.59;5094374;28;20185;-64
2022/04/23 06:31:32;;;;;;;39.95;27.45;;;;;;;10.52;100.00;99396.94;5112485;28;20028;-65
2022/04/23 06:33:57;;;;;;;31.98;25.13;;;;;;;10.53;100.00;99401.28;5112387;28;20041;-71
2022/04/23 06:36:23;;;;;;;34.63;27.25;;;;;;;10.51;100.00;99416.69;5112656;28;20038;-70
2022/04/23 06:38:48;;;;;;;33.95;26.10;;;;;;;10.41;100.00;99402.53;5112622;28;20085;-70
2022/04/23 06:41:14;;;;;;;37.63;25.63;;;;;;;10.49;100.00;99415.16;5112373;28;20027;-69
2022/04/23 06:43:39;;;;;;;33.38;27.10;;;;;;;10.49;100.00;99432.09;5112626;28;20023;-71
2022/04/23 06:46:05;;;;;;;32.05;25.58;;;;;;;10.44;100.00;99410.28;5112453;28;20459;-70
2022/04/23 06:48:30;;;;;;;35.45;25.55;;;;;;;10.50;100.00;99433.78;5112590;28;20039;-72
2022/04/23 06:50:56;;;;;;;33.85;25.33;;;;;;;10.43;100.00;99440.75;5112410;28;20057;-71
2022/04/23 06:53:21;;;;;;;34.78;26.00;;;;;;;10.41;100.00;99439.22;5112208;28;20028;-70
2022/04/23 06:55:46;;;;;;;33.20;26.30;;;;;;;10.32;100.00;99430.25;5112166;28;20024;-71
2022/04/23 06:58:12;;;;;;;38.30;26.55;;;;;;;10.32;100.00;99437.47;5112083;28;20160;-70
2022/04/23 07:00:40;;;;;;;35.05;26.67;;;;;;;10.36;100.00;99441.53;5112181;28;20016;-70
2022/04/23 07:03:05;;;;;;;37.08;27.60;;;;;;;10.35;100.00;99446.03;5112143;28;20100;-70
2022/04/23 07:05:31;;;;;;;35.67;27.08;;;;;;;10.37;100.00;99446.72;5111970;28;20063;-70
2022/04/23 07:07:59;;;;;;;38.35;27.23;;;;;;;10.37;100.00;99444.06;5112232;28;20052;-69
2022/04/23 07:10:29;;;;;;;40.03;26.85;;;;;;;10.37;100.00;99436.00;5111804;28;20103;-72
2022/04/23 07:12:55;;;;;;;39.58;26.60;;;;;;;10.36;100.00;99444.22;5111614;28;20118;-71
2022/04/23 07:15:22;;;;;;;37.72;27.55;;;;;;;10.29;100.00;99432.44;5111914;28;20028;-71
2022/04/23 07:17:48;;;;;;;36.83;27.15;;;;;;;10.39;100.00;99443.91;5112062;28;20032;-70
2022/04/23 07:20:16;;;;;;;39.15;27.17;;;;;;;10.30;100.00;99424.22;5112120;28;20096;-71
2022/04/23 07:24:02;;;;;;;40.90;28.35;;;;;;;10.38;100.00;99440.38;5112052;28;20403;-70
2022/04/23 07:25:28;;;;;;;38.30;27.63;;;;;;;10.48;100.00;99451.84;5111782;28;20165;-71
2022/04/23 07:27:53;;;;;;;42.30;28.45;;;;;;;10.45;100.00;99449.47;5111915;28;20031;-71
2022/04/23 07:30:19;;;;;;;40.22;27.77;;;;;;;10.48;100.00;99456.38;5111840;28;20038;-69
2022/04/23 07:32:44;;;;;;;42.13;29.33;;;;;;;10.47;100.00;99449.31;5111985;28;20030;-70
2022/04/23 07:37:54;;;;;;;45.30;29.20;;;;;;;10.43;100.00;99464.03;5111494;28;20371;-72
2022/04/23 07:40:20;;;;;;;37.30;27.88;;;;;;;10.40;100.00;99470.56;5093589;28;20028;-71
2022/04/23 07:42:46;;;;;;;46.40;28.63;;;;;;;10.39;100.00;99459.97;5111742;28;20026;-71
2022/04/23 07:45:12;;;;;;;41.50;29.17;;;;;;;10.37;100.00;99461.97;5111966;28;20569;-71
2022/04/23 07:47:37;;;;;;;41.15;29.58;;;;;;;10.39;100.00;99473.38;5111643;28;20040;-71
2022/04/23 07:50:04;;;;;;;39.00;28.75;;;;;;;10.42;100.00;99470.41;5111539;28;20034;-71
2022/04/23 07:52:30;;;;;;;50.33;29.45;;;;;;;10.46;100.00;99469.09;5111642;28;20110;-71
2022/04/23 07:54:55;;;;;;;40.50;29.38;;;;;;;10.58;100.00;99471.34;5093463;28;20138;-72
2022/04/23 07:57:22;;;;;;;43.15;28.52;;;;;;;10.61;100.00;99478.28;5111566;28;20023;-70
2022/04/23 07:59:48;;;;;;;37.33;27.45;;;;;;;10.61;100.00;99484.47;5111817;28;20066;-70
2022/04/23 08:02:13;;;;;;;35.08;26.80;;;;;;;10.53;100.00;99479.03;5114917;28;20018;-71
2022/04/23 08:04:38;;;;;;;36.75;26.55;;;;;;;10.62;100.00;99494.22;5110890;28;20024;-71
2022/04/23 08:07:04;;;;;;;37.42;26.10;;;;;;;10.68;100.00;99496.25;5109961;28;20471;-70
2022/04/23 08:09:31;;;;;;;33.25;25.52;;;;;;;10.67;100.00;99499.06;5091291;28;20034;-71
2022/04/23 08:11:56;;;;;;;33.97;24.85;;;;;;;10.67;100.00;99489.19;5122470;28;20050;-71
2022/04/23 08:14:22;;;;;;;36.65;26.02;;;;;;;10.78;100.00;99509.56;5130145;28;20047;-71
2022/04/23 08:16:49;;;;;;;35.95;25.90;;;;;;;10.74;100.00;99503.66;5129654;27;20042;-71
2022/04/23 08:19:17;;;;;;;37.58;25.10;;;;;;;10.76;100.00;99512.41;5129712;28;20427;-72
2022/04/23 08:21:43;;;;;;;36.45;27.10;;;;;;;10.74;100.00;99506.34;5129329;27;20066;-71
2022/04/23 08:24:08;;;;;;;37.53;25.80;;;;;;;10.78;100.00;99513.13;5129924;28;20067;-69
2022/04/23 08:26:34;;;;;;;34.83;25.45;;;;;;;10.83;100.00;99516.16;5129528;27;20054;-71
2022/04/23 08:31:43;;;;;;;33.65;24.88;;;;;;;10.81;100.00;99501.22;5129404;27;20131;-70
2022/04/23 08:34:09;;;;;;;29.60;24.17;;;;;;;10.85;100.00;99503.44;5129128;28;20118;-71
2022/04/23 08:36:39;;;;;;;29.33;22.70;;;;;;;10.92;100.00;99509.00;5129669;28;20478;-70
2022/04/23 08:39:06;;;;;;;32.25;24.52;;;;;;;10.97;100.00;99517.44;5129317;27;20038;-71
2022/04/23 08:41:34;;;;;;;30.83;24.10;;;;;;;11.01;100.00;99516.97;5129755;28;20522;-71
2022/04/23 08:44:07;;;;;;;32.90;22.80;;;;;;;11.00;100.00;99512.59;5129518;27;20610;-71
2022/04/23 08:46:34;;;;;;;33.35;24.98;;;;;;;11.07;100.00;99518.19;5130075;28;20116;-70
2022/04/23 08:49:16;;;;;;;30.02;23.45;;;;;;;11.08;100.00;99506.44;5128952;27;20372;-70
2022/04/23 08:51:47;;;;;;;28.80;24.13;;;;;;;11.15;100.00;99504.81;5133645;27;20027;-71
2022/04/23 08:54:14;;;;;;;27.48;23.05;;;;;;;11.18;100.00;99516.06;5133479;27;20498;-70
2022/04/23 08:56:45;;;;;;;29.27;22.50;;;;;;;11.23;100.00;99512.94;5133266;27;20019;-71
2022/04/23 08:59:15;;;;;;;24.83;20.15;;;;;;;11.32;100.00;99531.59;5114737;27;20039;-72
2022/04/23 09:01:44;;;;;;;27.63;21.10;;;;;;;11.34;100.00;99523.38;5133353;27;20390;-71
2022/04/23 09:04:11;;;;;;;28.70;21.30;;;;;;;11.43;100.00;99535.84;5133153;27;20039;-71
2022/04/23 09:06:41;;;;;;;24.50;19.98;;;;;;;11.48;100.00;99545.13;5115008;27;20615;-71
2022/04/23 09:09:12;;;;;;;25.75;19.40;;;;;;;11.45;100.00;99533.88;5133093;27;20050;-73
2022/04/23 09:11:43;;;;;;;26.95;19.75;;;;;;;11.48;100.00;99539.75;5114836;27;20031;-72
2022/04/23 09:14:22;;;;;;;26.52;18.67;;;;;;;11.51;100.00;99539.41;5132682;27;20078;-71
2022/04/23 09:25:09;;;;;;;24.15;17.38;;;;;;;11.59;100.00;99565.50;5133707;27;20514;-71
2022/04/23 09:27:35;;;;;;;28.20;19.45;;;;;;;11.58;100.00;99564.63;5133573;27;20023;-73
2022/04/23 09:30:06;;;;;;;29.38;19.73;;;;;;;11.58;100.00;99570.00;5133188;27;20092;-71
2022/04/23 09:32:32;;;;;;;22.05;17.20;;;;;;;11.58;100.00;99570.00;5133363;27;20027;-73
2022/04/23 09:35:06;;;;;;;23.75;18.45;;;;;;;11.62;100.00;99578.63;5124180;27;20019;-70
2022/04/23 09:40:29;;;;;;;23.80;17.17;;;;;;;11.57;100.00;99578.22;5055265;28;20088;-70
2022/04/23 09:43:01;;;;;;;27.35;17.13;;;;;;;11.64;100.00;99591.91;5093759;28;20027;-70
2022/04/23 09:45:31;;;;;;;21.75;16.73;;;;;;;11.66;100.00;99584.50;5111978;28;20031;-71
2022/04/23 09:48:05;;;;;;;24.15;16.77;;;;;;;11.72;100.00;99589.25;5112516;28;20070;-71
2022/04/23 09:50:39;;;;;;;23.65;15.48;;;;;;;11.75;100.00;99586.25;5128708;27;20444;-72
2022/04/23 09:53:11;;;;;;;22.45;15.57;;;;;;;11.74;100.00;99580.06;5112257;27;20039;-72
2022/04/23 09:55:37;;;;;;;21.13;15.68;;;;;;;11.89;100.00;99591.88;5132312;27;20110;-72
2022/04/23 09:58:07;;;;;;;17.55;13.43;;;;;;;11.96;100.00;99592.91;5132062;27;20039;-72
2022/04/23 10:00:38;;;;;;;19.08;13.98;;;;;;;12.01;100.00;99590.59;5113876;27;20019;-72
2022/04/23 10:03:07;;;;;;;22.38;14.27;;;;;;;12.10;100.00;99602.22;5132016;27;20053;-72
2022/04/23 10:05:39;;;;;;;20.70;13.05;;;;;;;12.20;100.00;99605.59;5132086;27;20060;-73
2022/04/23 10:08:11;;;;;;;17.77;13.20;;;;;;;12.20;100.00;99602.91;5111605;28;20130;-72
2022/04/23 10:10:58;;;;;;;21.58;14.35;;;;;;;12.25;100.00;99617.56;5111743;28;20016;-73
2022/04/23 10:13:28;;;;;;;16.77;12.93;;;;;;;12.26;100.00;99615.72;5111417;28;20052;-72
2022/04/23 10:15:54;;;;;;;18.35;12.93;;;;;;;12.29;100.00;99612.69;5111678;28;20031;-72
2022/04/23 10:18:21;;;;;;;15.57;11.90;;;;;;;12.27;100.00;99612.00;5111743;28;20077;-71
2022/04/23 10:20:55;;;;;;;18.55;13.15;;;;;;;12.27;100.00;99612.88;5111325;28;20038;-72
2022/04/23 10:23:59;;;;;;;16.52;12.60;;;;;;;12.28;100.00;99609.16;5111432;28;20020;-72
2022/04/23 10:26:33;;;;;;;17.40;12.95;;;;;;;12.32;100.00;99612.38;5107298;28;20411;-70
2022/04/23 10:29:00;;;;;;;19.23;14.30;;;;;;;12.26;100.00;99584.31;5111118;28;20039;-72
2022/04/23 10:31:25;;;;;;;19.58;14.27;;;;;;;12.34;100.00;99591.53;5111282;28;20028;-71
2022/04/23 10:33:54;;;;;;;20.85;15.30;;;;;;;12.38;100.00;99593.72;5111396;28;20380;-73
2022/04/23 10:36:22;;;;;;;26.90;16.67;;;;;;;12.34;100.00;99581.63;5110134;28;20032;-72
2022/04/23 10:38:52;;;;;;;21.83;16.98;;;;;;;12.53;100.00;99591.25;5111634;28;20058;-73
2022/04/23 10:41:24;;;;;;;23.20;18.00;;;;;;;12.56;100.00;99590.91;5112048;28;20418;-72
2022/04/23 10:43:52;;;;;;;27.70;19.85;;;;;;;12.73;100.00;99603.38;5112366;28;20035;-72
2022/04/23 10:46:36;;;;;;;25.83;18.25;;;;;;;12.84;100.00;99600.41;5112436;28;20023;-66
2022/04/23 10:49:17;;;;;;;24.35;19.08;;;;;;;12.94;100.00;99601.06;5093995;28;20522;-65
2022/04/23 10:51:57;;;;;;;23.42;18.15;;;;;;;13.01;98.89;99592.19;5111996;28;20428;-66
2022/04/23 10:54:41;;;;;;;23.52;18.58;;;;;;;13.16;98.19;99600.44;5112108;28;20024;-66
2022/04/23 10:57:13;;;;;;;29.23;19.77;;;;;;;13.28;96.84;99604.47;5112035;28;20170;-65
2022/04/23 10:59:48;;;;;;;23.70;19.05;;;;;;;13.40;96.72;99606.66;5112398;28;20031;-72
2022/04/23 11:02:30;;;;;;;23.77;18.55;;;;;;;13.46;94.71;99602.44;5094342;28;20030;-72
2022/04/23 11:14:39;;;;;;;26.15;20.33;;;;;;;13.65;93.95;99623.63;5111005;28;20513;-66
2022/04/23 11:17:06;;;;;;;26.80;20.50;;;;;;;13.68;93.90;99634.91;5111543;28;20104;-65
2022/04/23 11:19:32;;;;;;;26.33;20.02;;;;;;;13.66;93.13;99631.56;5093446;28;20039;-66
2022/04/23 11:21:58;;;;;;;26.17;19.75;;;;;;;13.64;93.09;99625.47;5111599;28;20030;-66
2022/04/23 11:24:24;;;;;;;23.58;19.02;;;;;;;13.62;93.15;99634.75;5111759;28;20019;-66
2022/04/23 11:26:51;;;;;;;24.38;18.77;;;;;;;13.58;93.51;99631.53;5111664;28;20032;-66
2022/04/23 11:29:17;;;;;;;22.10;17.70;;;;;;;13.55;93.35;99618.41;5111450;28;20101;-66
2022/04/23 11:31:58;;;;;;;22.63;17.92;;;;;;;13.54;92.91;99624.81;5111621;28;20031;-66
2022/04/23 11:34:24;;;;;;;23.55;18.80;;;;;;;13.52;92.55;99642.19;5111253;28;20027;-65
2022/04/23 11:36:51;;;;;;;21.88;18.15;;;;;;;13.51;93.68;99641.31;5111698;28;20463;-65
2022/04/23 11:39:17;;;;;;;23.75;18.75;;;;;;;13.52;93.83;99645.69;5092885;28;20027;-64
2022/04/23 11:41:50;;;;;;;23.90;18.27;;;;;;;13.51;94.19;99640.47;5111391;28;20038;-66
2022/04/23 11:44:16;;;;;;;20.75;17.35;;;;;;;13.56;94.24;99651.59;5111313;28;20101;-66
2022/04/23 11:46:43;;;;;;;22.52;18.17;;;;;;;13.46;94.35;99634.78;5111257;28;20019;-67
2022/04/23 11:49:09;;;;;;;25.58;18.83;;;;;;;13.51;94.12;99632.38;5092940;28;20088;-65